Time;durP1;ratioP1;P1;durP2;ratioP2;P2;SDS_P1;SDS_P2;PMS_P1;PMS_P2;Temp;Humidity;BMP_temperature;BMP_pressure;BME280_temperature;BME280_humidity;BME280_pressure;Samples;Min_cycle;Max_cycle;Signal;HPM_P1;HPM_P2
2022/11/06 00:00:28;;;;;;;0.50;0.50;;;14.90;99.90;;;;;;5072715;28;20197;-66
2022/11/06 00:03:16;;;;;;;0.40;0.40;;;14.90;99.90;;;;;;5072143;28;20583;-66
2022/11/06 00:09:14;;;;;;;0.40;0.40;;;14.90;99.90;;;;;;5072333;28;20646;-66
2022/11/06 00:12:02;;;;;;;0.50;0.50;;;14.90;99.90;;;;;;5071991;28;20205;-66
2022/11/06 00:14:50;;;;;;;0.40;0.40;;;14.90;99.90;;;;;;5072449;28;20223;-66
2022/11/06 00:17:39;;;;;;;0.40;0.40;;;14.90;99.90;;;;;;5072436;28;20196;-66
2022/11/06 00:20:27;;;;;;;0.50;0.50;;;14.90;99.90;;;;;;5072264;28;20223;-66
2022/11/06 00:23:16;;;;;;;0.47;0.47;;;14.80;99.90;;;;;;5071640;28;20283;-66
2022/11/06 00:26:06;;;;;;;0.40;0.40;;;14.80;99.90;;;;;;5072253;28;20692;-66
2022/11/06 00:28:55;;;;;;;1.63;1.52;;;14.80;99.90;;;;;;5072023;28;20614;-66
2022/11/06 00:31:43;;;;;;;0.40;0.40;;;14.80;99.90;;;;;;5072103;28;20226;-66
2022/11/06 00:34:31;;;;;;;0.40;0.40;;;14.80;99.90;;;;;;5072044;28;20228;-66
2022/11/06 00:37:19;;;;;;;0.60;0.60;;;14.80;99.90;;;;;;5071479;28;20677;-66
2022/11/06 00:40:09;;;;;;;0.50;0.50;;;14.80;99.90;;;;;;5072553;28;20580;-66
2022/11/06 00:42:58;;;;;;;0.40;0.40;;;14.80;99.90;;;;;;5071910;28;20196;-66
2022/11/06 00:45:46;;;;;;;0.60;0.60;;;14.80;99.90;;;;;;5073802;28;20212;-66
2022/11/06 00:48:35;;;;;;;0.40;0.40;;;14.80;99.90;;;;;;5071968;28;20276;-66
2022/11/06 00:51:26;;;;;;;0.50;0.50;;;14.80;99.90;;;;;;5073066;28;20303;-66
2022/11/06 00:54:14;;;;;;;0.40;0.40;;;14.80;99.90;;;;;;5072886;28;20222;-66
2022/11/06 00:57:04;;;;;;;0.40;0.40;;;14.80;99.90;;;;;;5072112;28;20199;-66
2022/11/06 00:59:52;;;;;;;0.40;0.40;;;14.80;99.90;;;;;;5071411;28;20567;-66
2022/11/06 01:02:40;;;;;;;0.63;0.63;;;14.80;99.90;;;;;;5071905;28;20322;-66
2022/11/06 01:05:28;;;;;;;0.65;0.65;;;14.80;99.90;;;;;;5071311;28;20235;-66
2022/11/06 01:08:16;;;;;;;0.40;0.40;;;14.80;99.90;;;;;;5070548;28;20303;-66
2022/11/06 01:11:09;;;;;;;0.55;0.55;;;14.80;99.90;;;;;;5072427;28;20221;-66
2022/11/06 01:14:00;;;;;;;0.40;0.40;;;14.80;99.90;;;;;;5071532;28;20279;-66
2022/11/06 01:16:48;;;;;;;0.40;0.40;;;14.80;99.90;;;;;;5072079;28;20699;-66
2022/11/06 01:19:36;;;;;;;0.40;0.40;;;14.80;99.90;;;;;;5071192;28;20604;-66
2022/11/06 01:22:24;;;;;;;1.55;1.45;;;14.80;99.90;;;;;;5071232;28;20200;-66
2022/11/06 01:25:12;;;;;;;0.40;0.40;;;14.70;99.90;;;;;;5071279;28;20626;-66
2022/11/06 01:28:00;;;;;;;1.10;1.10;;;14.80;99.90;;;;;;5071404;28;20266;-66
2022/11/06 01:30:50;;;;;;;0.40;0.40;;;14.70;99.90;;;;;;5070635;28;20303;-66
2022/11/06 01:33:38;;;;;;;0.40;0.40;;;14.70;99.90;;;;;;5071361;28;20277;-66
2022/11/06 01:36:27;;;;;;;0.55;0.55;;;14.70;99.90;;;;;;5112783;22;20231;-63
2022/11/06 01:39:16;;;;;;;1.48;1.38;;;14.70;99.90;;;;;;5091972;28;20196;-64
2022/11/06 01:42:04;;;;;;;0.70;0.70;;;14.70;99.90;;;;;;5093277;28;20196;-64
2022/11/06 01:45:26;;;;;;;0.60;0.60;;;14.70;99.90;;;;;;5095452;28;20216;-64
2022/11/06 01:48:17;;;;;;;0.80;0.80;;;14.70;99.90;;;;;;5096042;28;20324;-64
2022/11/06 01:51:06;;;;;;;0.73;0.73;;;14.70;99.90;;;;;;5095062;28;20786;-64
2022/11/06 01:53:55;;;;;;;0.65;0.65;;;14.70;99.90;;;;;;5095755;28;20671;-65
2022/11/06 01:56:46;;;;;;;0.40;0.40;;;14.70;99.90;;;;;;5094430;28;20551;-65
2022/11/06 01:59:39;;;;;;;0.50;0.50;;;14.70;99.90;;;;;;5095138;28;20302;-64
2022/11/06 02:02:27;;;;;;;0.50;0.50;;;14.70;99.90;;;;;;5095875;28;20192;-64
2022/11/06 02:05:17;;;;;;;1.50;1.50;;;14.70;99.90;;;;;;5095679;28;20227;-64
2022/11/06 02:08:08;;;;;;;0.88;0.88;;;14.60;99.90;;;;;;5095530;28;20208;-65
2022/11/06 02:10:56;;;;;;;0.55;0.55;;;14.70;99.90;;;;;;5094402;28;20265;-65
2022/11/06 02:14:04;;;;;;;0.50;0.50;;;14.80;99.90;;;;;;5093966;28;20318;-64
2022/11/06 02:17:04;;;;;;;0.40;0.40;;;14.60;99.90;;;;;;5095917;28;20274;-64
2022/11/06 02:20:01;;;;;;;0.50;0.50;;;14.60;99.90;;;;;;5094471;28;20275;-65
2022/11/06 02:23:06;;;;;;;1.08;0.95;;;14.60;99.90;;;;;;5095284;28;20195;-64
2022/11/06 02:26:12;;;;;;;1.05;1.05;;;14.60;99.90;;;;;;5094759;28;20278;-64
2022/11/06 02:29:07;;;;;;;0.40;0.40;;;14.60;99.90;;;;;;5095360;28;20210;-64
2022/11/06 02:31:57;;;;;;;0.40;0.40;;;14.80;99.90;;;;;;5095354;28;20369;-65
2022/11/06 02:34:47;;;;;;;0.40;0.40;;;14.50;99.90;;;;;;5094741;28;20308;-66
2022/11/06 02:37:37;;;;;;;0.50;0.50;;;14.70;99.90;;;;;;5094698;28;20200;-64
2022/11/06 02:40:31;;;;;;;0.88;0.88;;;14.60;99.90;;;;;;5095312;28;20302;-64
2022/11/06 02:43:24;;;;;;;2.30;1.50;;;14.60;99.90;;;;;;5095130;28;20288;-65
2022/11/06 02:46:18;;;;;;;1.58;1.58;;;14.50;99.90;;;;;;5094218;28;20212;-65
2022/11/06 02:49:09;;;;;;;0.40;0.40;;;14.60;99.90;;;;;;5089347;28;20200;-64
2022/11/06 02:52:03;;;;;;;0.40;0.40;;;14.70;99.90;;;;;;5094672;28;20708;-64
2022/11/06 02:54:54;;;;;;;2.25;2.15;;;14.60;99.90;;;;;;5094206;28;20220;-65
2022/11/06 02:57:48;;;;;;;0.40;0.40;;;14.60;99.90;;;;;;5082059;28;20203;-64
2022/11/06 03:00:38;;;;;;;1.73;1.67;;;14.60;99.90;;;;;;5074256;28;20208;-64
2022/11/06 03:03:31;;;;;;;0.70;0.70;;;14.60;99.90;;;;;;5088235;28;20200;-64
2022/11/06 03:06:27;;;;;;;0.40;0.40;;;14.60;99.90;;;;;;5095718;28;20303;-64
2022/11/06 03:09:20;;;;;;;0.52;0.52;;;14.60;99.90;;;;;;5094484;28;20552;-65
2022/11/06 03:12:17;;;;;;;2.50;2.40;;;14.50;99.90;;;;;;5094347;28;20260;-64
2022/11/06 03:15:19;;;;;;;0.60;0.60;;;14.60;99.90;;;;;;5093374;28;20763;-65
2022/11/06 03:18:14;;;;;;;0.40;0.40;;;14.60;99.90;;;;;;5094141;28;20283;-65
2022/11/06 03:21:09;;;;;;;0.40;0.40;;;14.60;99.90;;;;;;5093865;28;20582;-65
2022/11/06 03:24:04;;;;;;;0.60;0.60;;;14.50;99.90;;;;;;5094655;28;20279;-65
2022/11/06 03:26:53;;;;;;;0.50;0.50;;;14.60;99.90;;;;;;5094778;28;20665;-64
2022/11/06 03:29:45;;;;;;;0.40;0.40;;;14.40;99.90;;;;;;5093731;28;20679;-64
2022/11/06 03:32:36;;;;;;;0.50;0.50;;;14.50;99.90;;;;;;5093792;28;20211;-65
2022/11/06 03:35:29;;;;;;;0.40;0.40;;;14.50;99.90;;;;;;5093930;28;20713;-64
2022/11/06 03:38:23;;;;;;;0.40;0.40;;;14.60;99.90;;;;;;5094226;28;20252;-65
2022/11/06 03:41:17;;;;;;;0.40;0.40;;;14.50;99.90;;;;;;5094002;28;20285;-64
2022/11/06 03:44:08;;;;;;;1.05;1.05;;;14.60;99.90;;;;;;5093819;28;20200;-64
2022/11/06 03:47:02;;;;;;;0.40;0.40;;;14.50;99.90;;;;;;5093878;28;20218;-64
2022/11/06 03:49:54;;;;;;;0.50;0.50;;;14.50;99.90;;;;;;5093977;28;20621;-64
2022/11/06 03:52:48;;;;;;;0.40;0.40;;;14.50;99.90;;;;;;5093815;28;20240;-64
2022/11/06 03:55:43;;;;;;;0.40;0.40;;;14.40;99.90;;;;;;5093957;28;20216;-64
2022/11/06 03:58:37;;;;;;;0.40;0.40;;;14.50;99.90;;;;;;5094331;28;20287;-64
2022/11/06 04:01:31;;;;;;;0.40;0.40;;;14.50;99.90;;;;;;5093681;28;20200;-64
2022/11/06 04:04:24;;;;;;;0.40;0.40;;;14.40;99.90;;;;;;5093239;28;20200;-64
2022/11/06 04:07:15;;;;;;;0.40;0.40;;;14.40;99.90;;;;;;5094180;28;20204;-65
2022/11/06 04:16:20;;;;;;;0.40;0.40;;;14.50;99.90;;;;;;5092733;28;20223;-64
2022/11/06 04:19:15;;;;;;;3.22;1.95;;;14.40;99.90;;;;;;5093966;28;20247;-64
2022/11/06 04:22:18;;;;;;;0.68;0.68;;;14.50;99.90;;;;;;5093389;28;20655;-65
2022/11/06 04:28:34;;;;;;;0.40;0.40;;;14.40;99.90;;;;;;5094373;28;20200;-64
2022/11/06 04:31:29;;;;;;;0.40;0.40;;;14.30;99.90;;;;;;5092876;28;20207;-64
2022/11/06 04:34:27;;;;;;;0.40;0.40;;;14.40;99.90;;;;;;5094054;28;20192;-64
2022/11/06 04:37:21;;;;;;;0.40;0.40;;;14.40;99.90;;;;;;5092446;28;20275;-64
2022/11/06 04:40:11;;;;;;;0.40;0.40;;;14.40;99.90;;;;;;5093007;28;20279;-64
2022/11/06 04:43:05;;;;;;;0.40;0.40;;;14.40;99.90;;;;;;5094193;28;20192;-65
2022/11/06 04:45:58;;;;;;;0.52;0.52;;;14.40;99.90;;;;;;5092207;28;20718;-65
2022/11/06 04:48:47;;;;;;;0.40;0.40;;;14.40;99.90;;;;;;5091952;28;20200;-63
2022/11/06 04:51:37;;;;;;;0.40;0.40;;;14.50;99.90;;;;;;5092204;28;20200;-64
2022/11/06 04:54:26;;;;;;;0.40;0.40;;;14.30;99.90;;;;;;5093359;28;20283;-64
2022/11/06 04:57:14;;;;;;;0.50;0.50;;;14.50;99.90;;;;;;5092134;28;20198;-64
2022/11/06 05:00:03;;;;;;;0.40;0.40;;;14.30;99.90;;;;;;5092130;28;20238;-64
2022/11/06 05:02:52;;;;;;;0.40;0.40;;;14.40;99.90;;;;;;5091492;28;20202;-64
2022/11/06 05:05:40;;;;;;;0.40;0.40;;;14.60;99.90;;;;;;5071232;28;20658;-65
2022/11/06 05:08:28;;;;;;;0.80;0.80;;;14.30;99.90;;;;;;5071964;28;20573;-65
2022/11/06 05:11:16;;;;;;;0.40;0.40;;;14.70;99.90;;;;;;5072148;28;20229;-64
2022/11/06 05:14:04;;;;;;;0.40;0.40;;;14.60;99.90;;;;;;5071397;28;20221;-65
2022/11/06 05:16:53;;;;;;;0.60;0.60;;;14.40;99.90;;;;;;5070928;28;20197;-65
2022/11/06 05:19:42;;;;;;;0.40;0.40;;;14.40;99.90;;;;;;5072734;28;20196;-65
2022/11/06 05:25:38;;;;;;;0.40;0.40;;;14.40;99.90;;;;;;5072231;28;20684;-64
2022/11/06 05:28:26;;;;;;;0.40;0.40;;;14.30;99.90;;;;;;5071496;28;20204;-65
2022/11/06 05:31:14;;;;;;;7.53;1.85;;;14.40;99.90;;;;;;5071932;28;20248;-65
2022/11/06 05:34:03;;;;;;;0.40;0.40;;;14.40;99.90;;;;;;5072016;28;20311;-65
2022/11/06 05:36:52;;;;;;;0.40;0.40;;;14.20;99.90;;;;;;5071960;28;20288;-64
2022/11/06 05:39:40;;;;;;;0.70;0.70;;;14.30;99.90;;;;;;5072343;28;20279;-64
2022/11/06 05:42:29;;;;;;;0.40;0.40;;;14.70;99.90;;;;;;5073256;28;20193;-65
2022/11/06 05:45:17;;;;;;;0.40;0.40;;;14.30;99.90;;;;;;5072606;28;20626;-64
2022/11/06 05:48:05;;;;;;;0.82;0.82;;;14.30;99.90;;;;;;5072722;28;20821;-63
2022/11/06 05:50:53;;;;;;;0.60;0.60;;;14.30;99.90;;;;;;5071848;28;20205;-64
2022/11/06 05:53:43;;;;;;;0.60;0.60;;;14.40;99.90;;;;;;5076380;28;20209;-64
2022/11/06 05:56:31;;;;;;;0.40;0.40;;;14.30;99.90;;;;;;5082030;28;20342;-64
2022/11/06 05:59:19;;;;;;;0.40;0.40;;;14.50;99.90;;;;;;5097362;28;20305;-64
2022/11/06 06:02:07;;;;;;;0.70;0.70;;;14.30;99.90;;;;;;5097825;28;20335;-65
2022/11/06 06:04:55;;;;;;;0.40;0.40;;;14.50;99.90;;;;;;5097702;28;20294;-64
2022/11/06 06:07:43;;;;;;;0.40;0.40;;;14.50;99.90;;;;;;5098517;28;20286;-64
2022/11/06 06:10:32;;;;;;;0.47;0.47;;;14.30;99.90;;;;;;5096990;28;20305;-64
2022/11/06 06:13:20;;;;;;;0.40;0.40;;;14.30;99.90;;;;;;5098123;28;20329;-65
2022/11/06 06:16:08;;;;;;;0.40;0.40;;;14.20;99.90;;;;;;5097150;28;20243;-65
2022/11/06 06:18:56;;;;;;;0.40;0.40;;;14.50;99.90;;;;;;5096809;28;20279;-65
2022/11/06 06:21:44;;;;;;;0.40;0.40;;;14.30;99.90;;;;;;5097260;28;20241;-64
2022/11/06 06:24:32;;;;;;;0.40;0.40;;;14.30;99.90;;;;;;5096333;28;20654;-65
2022/11/06 06:27:22;;;;;;;0.97;0.97;;;14.30;99.90;;;;;;5096206;28;20200;-65
2022/11/06 06:30:11;;;;;;;0.50;0.50;;;14.30;99.90;;;;;;5095688;28;20287;-64
2022/11/06 06:33:04;;;;;;;0.93;0.93;;;14.30;99.90;;;;;;5095537;28;20295;-64
2022/11/06 06:35:52;;;;;;;0.40;0.40;;;14.30;99.90;;;;;;5095502;28;20238;-64
2022/11/06 06:38:40;;;;;;;0.60;0.60;;;14.30;99.90;;;;;;5095411;28;20258;-64
2022/11/06 06:41:28;;;;;;;0.40;0.40;;;14.50;99.90;;;;;;5095406;28;20716;-64
2022/11/06 06:44:17;;;;;;;0.40;0.40;;;14.30;99.90;;;;;;5095300;28;20550;-64
2022/11/06 06:47:05;;;;;;;0.40;0.40;;;14.30;99.90;;;;;;5095702;28;20672;-64
2022/11/06 06:49:53;;;;;;;0.50;0.50;;;14.50;99.90;;;;;;5094982;28;20603;-64
2022/11/06 06:52:41;;;;;;;0.70;0.70;;;14.30;99.90;;;;;;5095762;28;20275;-64
2022/11/06 06:55:29;;;;;;;0.40;0.40;;;14.30;99.90;;;;;;5094750;28;20297;-65
2022/11/06 06:58:17;;;;;;;0.40;0.40;;;14.30;99.90;;;;;;5094082;28;20297;-65
2022/11/06 07:01:09;;;;;;;1.13;1.10;;;14.30;99.90;;;;;;5093450;28;20231;-64
2022/11/06 07:03:57;;;;;;;0.82;0.82;;;14.30;99.90;;;;;;5095368;28;20196;-64
2022/11/06 07:06:54;;;;;;;0.50;0.50;;;14.30;99.90;;;;;;5094619;28;20197;-64
2022/11/06 07:09:42;;;;;;;1.90;0.80;;;14.30;99.90;;;;;;5094856;28;20635;-65
2022/11/06 07:12:30;;;;;;;0.98;0.98;;;14.30;99.90;;;;;;5094785;28;20289;-65
2022/11/06 07:15:18;;;;;;;1.10;1.02;;;14.50;99.90;;;;;;5094845;28;20701;-65
2022/11/06 07:18:07;;;;;;;0.40;0.40;;;14.40;99.90;;;;;;5094691;28;20265;-64
2022/11/06 07:20:56;;;;;;;0.50;0.50;;;14.30;99.90;;;;;;5093707;28;20223;-64
2022/11/06 07:23:45;;;;;;;0.50;0.50;;;14.30;99.90;;;;;;5094772;28;20271;-64
2022/11/06 07:26:33;;;;;;;1.80;1.70;;;14.40;99.90;;;;;;5094567;28;20606;-64
2022/11/06 07:29:21;;;;;;;0.40;0.40;;;14.30;99.90;;;;;;5093461;28;20279;-64
2022/11/06 07:32:09;;;;;;;0.50;0.50;;;14.30;99.90;;;;;;5114025;28;20196;-64
2022/11/06 07:34:58;;;;;;;0.40;0.40;;;14.50;99.90;;;;;;5114643;28;20215;-65
2022/11/06 07:37:46;;;;;;;0.40;0.40;;;14.20;99.90;;;;;;5114716;28;20206;-65
2022/11/06 07:40:35;;;;;;;0.40;0.40;;;14.60;99.90;;;;;;5113864;28;20205;-64
2022/11/06 07:43:25;;;;;;;0.60;0.60;;;14.30;99.90;;;;;;5115982;28;20191;-64
2022/11/06 07:46:13;;;;;;;1.13;1.13;;;14.40;99.90;;;;;;5113777;28;20345;-65
2022/11/06 07:49:01;;;;;;;0.40;0.40;;;14.40;99.90;;;;;;5113841;28;20678;-65
2022/11/06 07:51:51;;;;;;;0.40;0.40;;;14.70;99.90;;;;;;5114554;28;20192;-65
2022/11/06 07:54:39;;;;;;;0.40;0.40;;;14.50;99.90;;;;;;5113520;28;20344;-65
2022/11/06 07:57:27;;;;;;;0.40;0.40;;;14.70;99.90;;;;;;5103041;28;20707;-65
2022/11/06 08:00:15;;;;;;;0.40;0.40;;;14.80;99.90;;;;;;5093846;28;20347;-66
2022/11/06 08:03:03;;;;;;;0.50;0.50;;;14.60;99.90;;;;;;5093381;28;20675;-65
2022/11/06 08:05:52;;;;;;;0.40;0.40;;;14.60;99.90;;;;;;5093051;28;20360;-66
2022/11/06 08:08:41;;;;;;;0.50;0.50;;;14.60;99.90;;;;;;5093685;28;20241;-66
2022/11/06 08:11:29;;;;;;;0.60;0.60;;;14.50;99.90;;;;;;5093162;28;20200;-67
2022/11/06 08:14:17;;;;;;;0.40;0.40;;;14.60;99.90;;;;;;5092640;28;20219;-66
2022/11/06 08:17:05;;;;;;;0.90;0.90;;;14.70;99.90;;;;;;5093341;28;20222;-66
2022/11/06 08:19:53;;;;;;;0.40;0.40;;;14.50;99.90;;;;;;5093053;28;20279;-65
2022/11/06 08:22:41;;;;;;;6.00;4.33;;;14.50;99.90;;;;;;5094234;28;20204;-65
2022/11/06 08:25:31;;;;;;;0.40;0.40;;;14.70;99.90;;;;;;5092535;28;20710;-66
2022/11/06 08:28:19;;;;;;;0.40;0.40;;;14.60;99.90;;;;;;5093887;28;20209;-65
2022/11/06 08:31:09;;;;;;;0.40;0.40;;;14.70;99.90;;;;;;5092687;28;20191;-65
2022/11/06 08:33:57;;;;;;;0.40;0.40;;;14.60;99.90;;;;;;5094258;28;20212;-66
2022/11/06 08:36:45;;;;;;;0.50;0.50;;;14.70;99.90;;;;;;5093642;28;20287;-66
2022/11/06 08:39:36;;;;;;;0.60;0.60;;;14.70;99.90;;;;;;5092892;28;20605;-66
2022/11/06 08:42:26;;;;;;;0.40;0.40;;;14.70;99.90;;;;;;5092631;28;20196;-66
2022/11/06 08:45:14;;;;;;;0.43;0.43;;;15.00;99.90;;;;;;5092760;28;20277;-65
2022/11/06 08:48:03;;;;;;;0.40;0.40;;;14.80;99.90;;;;;;5092676;28;20192;-66
2022/11/06 08:50:51;;;;;;;0.40;0.40;;;14.80;99.90;;;;;;5093005;28;20321;-65
2022/11/06 08:53:39;;;;;;;0.40;0.40;;;14.80;99.90;;;;;;5093739;28;20200;-65
2022/11/06 08:56:27;;;;;;;1.13;1.13;;;14.80;99.90;;;;;;5084668;28;20230;-65
2022/11/06 08:59:17;;;;;;;1.33;1.23;;;14.80;99.90;;;;;;5092514;28;20266;-64
2022/11/06 09:02:05;;;;;;;0.40;0.40;;;14.90;99.90;;;;;;5092145;28;20232;-65
2022/11/06 09:04:53;;;;;;;0.40;0.40;;;14.90;99.90;;;;;;5092947;28;20265;-65
2022/11/06 09:07:41;;;;;;;2.00;1.90;;;14.90;99.90;;;;;;5093528;28;20694;-65
2022/11/06 09:10:29;;;;;;;0.40;0.40;;;14.90;99.90;;;;;;5093277;28;20322;-65
2022/11/06 09:13:17;;;;;;;0.40;0.40;;;14.80;99.90;;;;;;5094058;28;20214;-65
2022/11/06 09:16:07;;;;;;;0.40;0.40;;;15.00;99.90;;;;;;5093384;28;20220;-65
2022/11/06 09:19:02;;;;;;;0.50;0.50;;;14.90;99.90;;;;;;5093124;28;20192;-65
2022/11/06 09:21:50;;;;;;;0.40;0.40;;;14.90;99.90;;;;;;5093082;28;20283;-65
2022/11/06 09:24:41;;;;;;;0.40;0.40;;;14.90;99.90;;;;;;5092594;28;20619;-65
2022/11/06 09:27:52;;;;;;;0.40;0.40;;;14.90;99.90;;;;;;5092404;28;20207;-66
2022/11/06 09:30:46;;;;;;;0.40;0.40;;;15.00;99.90;;;;;;5092167;28;20192;-65
2022/11/06 09:33:35;;;;;;;0.40;0.40;;;15.00;99.90;;;;;;5092521;28;20293;-66
2022/11/06 09:36:23;;;;;;;0.70;0.70;;;15.00;99.90;;;;;;5091532;28;20215;-65
2022/11/06 09:39:12;;;;;;;0.40;0.40;;;15.00;99.90;;;;;;5092712;28;20333;-66
2022/11/06 09:42:05;;;;;;;1.25;1.25;;;15.00;99.90;;;;;;5092041;28;20710;-65
2022/11/06 09:45:02;;;;;;;0.40;0.40;;;15.00;99.90;;;;;;5092237;28;20230;-65
2022/11/06 09:47:56;;;;;;;0.40;0.40;;;15.00;99.90;;;;;;5093021;28;20196;-64
2022/11/06 09:50:50;;;;;;;0.40;0.40;;;15.00;99.90;;;;;;5092962;28;20707;-65
2022/11/06 09:53:44;;;;;;;2.23;2.10;;;15.00;99.90;;;;;;5092268;28;20318;-65
2022/11/06 09:56:37;;;;;;;0.40;0.40;;;15.10;99.90;;;;;;5091754;28;20273;-65
2022/11/06 09:59:26;;;;;;;0.40;0.40;;;15.10;99.90;;;;;;5092058;28;20195;-64
2022/11/06 10:02:25;;;;;;;4.05;1.30;;;15.10;99.90;;;;;;5092177;28;20200;-66
2022/11/06 10:05:20;;;;;;;0.40;0.40;;;15.10;99.90;;;;;;5095742;28;20250;-65
2022/11/06 10:08:16;;;;;;;0.63;0.63;;;15.10;99.90;;;;;;5095516;28;20203;-65
2022/11/06 10:11:30;;;;;;;0.40;0.40;;;15.20;99.90;;;;;;5095109;28;20329;-65
2022/11/06 10:14:31;;;;;;;0.40;0.40;;;15.20;99.90;;;;;;5095836;28;20276;-65
2022/11/06 10:17:39;;;;;;;0.45;0.45;;;15.20;99.90;;;;;;5096579;28;20263;-67
2022/11/06 10:20:31;;;;;;;0.40;0.40;;;15.30;99.90;;;;;;5095058;28;20196;-65
2022/11/06 10:23:36;;;;;;;0.40;0.40;;;15.30;99.90;;;;;;5094540;28;20274;-65
2022/11/06 10:26:32;;;;;;;0.40;0.40;;;15.40;99.90;;;;;;5094979;28;20295;-65
2022/11/06 10:29:40;;;;;;;0.40;0.40;;;15.20;99.90;;;;;;5094125;28;20196;-65
2022/11/06 10:32:46;;;;;;;0.40;0.40;;;16.00;99.90;;;;;;5096693;28;20799;-65
2022/11/06 10:35:38;;;;;;;0.40;0.40;;;15.30;99.90;;;;;;5095071;28;20234;-65
2022/11/06 10:38:30;;;;;;;0.40;0.40;;;15.40;99.90;;;;;;5095093;28;20198;-65
2022/11/06 10:41:22;;;;;;;0.40;0.40;;;15.40;99.90;;;;;;5095729;28;20265;-66
2022/11/06 10:44:16;;;;;;;0.40;0.40;;;15.40;99.90;;;;;;5095784;28;20204;-66
2022/11/06 10:47:11;;;;;;;0.40;0.40;;;15.40;99.90;;;;;;5094861;28;20677;-66
2022/11/06 10:50:02;;;;;;;0.40;0.40;;;15.40;99.90;;;;;;5094499;28;20579;-65
2022/11/06 10:52:55;;;;;;;0.35;0.35;;;15.40;99.90;;;;;;5095943;28;20245;-65
2022/11/06 10:56:16;;;;;;;0.55;0.55;;;15.40;99.90;;;;;;5094441;28;20306;-66
2022/11/06 10:59:08;;;;;;;0.40;0.40;;;15.40;99.90;;;;;;5074458;28;20569;-64
2022/11/06 11:01:56;;;;;;;0.40;0.40;;;15.40;99.90;;;;;;5074990;28;20280;-64
2022/11/06 11:04:44;;;;;;;0.40;0.40;;;15.50;99.90;;;;;;5074959;28;20596;-65
2022/11/06 11:07:34;;;;;;;0.40;0.40;;;15.50;99.90;;;;;;5074990;28;20232;-66
2022/11/06 11:10:31;;;;;;;0.40;0.40;;;15.50;99.90;;;;;;5074180;28;20232;-65
2022/11/06 11:13:21;;;;;;;0.40;0.40;;;15.50;99.90;;;;;;5073860;28;20590;-65
2022/11/06 11:16:14;;;;;;;0.40;0.40;;;15.60;99.90;;;;;;5073766;28;20217;-66
2022/11/06 11:19:23;;;;;;;0.40;0.40;;;15.60;99.90;;;;;;5074642;28;20207;-65
2022/11/06 11:22:19;;;;;;;0.40;0.40;;;15.70;99.90;;;;;;5074154;28;20196;-66
2022/11/06 11:25:24;;;;;;;0.40;0.40;;;15.60;99.90;;;;;;5073974;28;20303;-65
2022/11/06 11:28:25;;;;;;;0.30;0.30;;;15.60;99.90;;;;;;5075935;28;20293;-66
2022/11/06 11:31:15;;;;;;;0.40;0.40;;;15.60;99.90;;;;;;5073932;28;20219;-65
2022/11/06 11:34:06;;;;;;;0.50;0.50;;;16.00;99.90;;;;;;5074864;28;20262;-64
2022/11/06 11:36:57;;;;;;;0.40;0.40;;;15.70;99.90;;;;;;5074389;28;20330;-66
2022/11/06 11:39:45;;;;;;;0.40;0.40;;;15.70;99.90;;;;;;5073891;28;20201;-66
2022/11/06 11:42:33;;;;;;;0.40;0.40;;;15.70;99.90;;;;;;5074355;28;20207;-66
2022/11/06 11:45:23;;;;;;;0.40;0.40;;;15.70;99.90;;;;;;5073694;28;20216;-66
2022/11/06 11:48:13;;;;;;;0.40;0.40;;;15.80;99.90;;;;;;5075130;28;20201;-64
2022/11/06 11:51:12;;;;;;;0.40;0.40;;;15.70;99.90;;;;;;5074708;28;20192;-64
2022/11/06 11:54:05;;;;;;;0.40;0.40;;;15.80;99.90;;;;;;5074406;28;20232;-64
2022/11/06 11:56:56;;;;;;;0.40;0.40;;;15.80;99.90;;;;;;5079879;28;20216;-65
2022/11/06 11:59:59;;;;;;;0.40;0.40;;;15.80;99.90;;;;;;5094091;28;20200;-65
2022/11/06 12:02:52;;;;;;;0.60;0.60;;;15.80;99.90;;;;;;5093463;28;20257;-65
2022/11/06 12:05:41;;;;;;;0.40;0.40;;;15.80;99.90;;;;;;5094024;28;20220;-65
2022/11/06 12:08:29;;;;;;;0.40;0.40;;;15.80;99.90;;;;;;5094246;28;20240;-65
2022/11/06 12:11:22;;;;;;;0.80;0.80;;;15.80;99.90;;;;;;5092943;28;20279;-65
2022/11/06 12:14:26;;;;;;;0.40;0.40;;;15.80;99.90;;;;;;5093182;28;20249;-65
2022/11/06 12:17:19;;;;;;;0.40;0.40;;;15.80;99.90;;;;;;5093327;28;20596;-66
2022/11/06 12:20:17;;;;;;;0.40;0.40;;;15.80;99.90;;;;;;5092397;28;20668;-66
2022/11/06 12:23:13;;;;;;;0.40;0.40;;;15.80;99.90;;;;;;5092867;28;20206;-65
2022/11/06 12:26:06;;;;;;;0.40;0.40;;;15.80;99.90;;;;;;5093389;28;20208;-65
2022/11/06 12:28:57;;;;;;;0.40;0.40;;;15.80;99.90;;;;;;5092702;28;20207;-65
2022/11/06 12:31:58;;;;;;;0.40;0.40;;;15.70;99.90;;;;;;5092068;28;20192;-65
2022/11/06 12:34:54;;;;;;;0.40;0.40;;;15.80;99.90;;;;;;5092534;28;20307;-65
2022/11/06 12:37:55;;;;;;;0.40;0.40;;;15.90;99.90;;;;;;5092293;28;20283;-65
2022/11/06 12:40:49;;;;;;;0.40;0.40;;;15.90;99.90;;;;;;5092133;28;20191;-65
2022/11/06 12:43:41;;;;;;;0.40;0.40;;;15.90;99.90;;;;;;5093963;28;20196;-64
2022/11/06 12:46:38;;;;;;;0.40;0.40;;;15.90;99.90;;;;;;5092740;28;20220;-65
2022/11/06 12:49:39;;;;;;;0.40;0.40;;;15.90;99.90;;;;;;5092237;28;20207;-65
2022/11/06 12:52:43;;;;;;;0.40;0.40;;;15.90;99.90;;;;;;5093364;28;20279;-65
2022/11/06 12:55:36;;;;;;;0.40;0.40;;;16.00;99.90;;;;;;5092114;28;20718;-65
2022/11/06 12:58:37;;;;;;;0.40;0.40;;;15.90;99.90;;;;;;5093019;28;20279;-66
2022/11/06 13:01:38;;;;;;;0.40;0.40;;;16.00;99.90;;;;;;5092224;28;20602;-65
2022/11/06 13:04:38;;;;;;;0.40;0.40;;;16.00;99.90;;;;;;5093423;28;20793;-65
2022/11/06 13:07:39;;;;;;;0.40;0.40;;;16.00;99.90;;;;;;5092315;28;20227;-65
2022/11/06 13:10:40;;;;;;;0.40;0.40;;;16.00;99.90;;;;;;5092659;28;20279;-65
2022/11/06 13:13:41;;;;;;;0.40;0.40;;;16.10;99.90;;;;;;5091794;28;20245;-65
2022/11/06 13:16:34;;;;;;;0.40;0.40;;;16.00;99.90;;;;;;5093645;28;20303;-65
2022/11/06 13:19:30;;;;;;;0.75;0.75;;;16.00;99.90;;;;;;5093144;28;20275;-66
2022/11/06 13:22:27;;;;;;;0.40;0.40;;;16.00;99.90;;;;;;5092517;28;20274;-66
2022/11/06 13:25:21;;;;;;;0.40;0.40;;;16.10;99.90;;;;;;5092664;28;20230;-65
2022/11/06 13:28:27;;;;;;;0.40;0.40;;;16.10;99.90;;;;;;5092086;28;20804;-65
2022/11/06 13:31:19;;;;;;;0.40;0.40;;;16.10;99.90;;;;;;5092671;28;20214;-65
2022/11/06 13:34:10;;;;;;;0.40;0.40;;;16.10;99.90;;;;;;5091639;28;20279;-65
2022/11/06 13:37:00;;;;;;;0.40;0.40;;;16.20;99.90;;;;;;5097116;22;20244;-66
2022/11/06 13:39:53;;;;;;;0.40;0.40;;;16.20;99.90;;;;;;5070541;28;20280;-68
2022/11/06 13:42:47;;;;;;;0.40;0.40;;;16.20;99.90;;;;;;5070467;28;20223;-66
2022/11/06 13:45:52;;;;;;;0.40;0.40;;;16.20;99.90;;;;;;5070388;28;20220;-70
2022/11/06 13:48:51;;;;;;;0.40;0.40;;;16.20;99.90;;;;;;5070547;28;20200;-68
2022/11/06 13:51:45;;;;;;;0.40;0.40;;;16.30;99.90;;;;;;5071980;28;20584;-68
2022/11/06 13:54:58;;;;;;;0.40;0.40;;;16.30;99.90;;;;;;5071690;28;20279;-70
2022/11/06 13:58:09;;;;;;;0.77;0.77;;;16.30;99.90;;;;;;5070520;28;20308;-69
2022/11/06 14:01:11;;;;;;;0.40;0.40;;;16.30;99.90;;;;;;5070697;28;20279;-66
2022/11/06 14:04:15;;;;;;;0.40;0.40;;;16.30;99.90;;;;;;5071558;28;20278;-71
2022/11/06 14:07:05;;;;;;;0.40;0.40;;;16.30;99.90;;;;;;5071579;28;20220;-69
2022/11/06 14:09:53;;;;;;;0.40;0.40;;;16.30;99.90;;;;;;5070074;28;20285;-69
2022/11/06 14:12:46;;;;;;;0.40;0.40;;;16.40;99.90;;;;;;5070798;28;20197;-66
2022/11/06 14:15:38;;;;;;;0.40;0.40;;;16.40;99.90;;;;;;5070607;28;20221;-67
2022/11/06 14:18:28;;;;;;;1.25;1.25;;;16.40;99.90;;;;;;5070876;28;20216;-71
2022/11/06 14:21:46;;;;;;;0.40;0.40;;;16.40;99.90;;;;;;5070533;28;20211;-70
2022/11/06 14:24:35;;;;;;;0.40;0.40;;;16.50;99.90;;;;;;5070722;28;20205;-70
2022/11/06 14:28:01;;;;;;;0.40;0.40;;;16.50;99.90;;;;;;5070889;28;20580;-69
2022/11/06 14:30:49;;;;;;;0.40;0.40;;;16.40;99.90;;;;;;5069390;28;20197;-67
2022/11/06 14:34:00;;;;;;;0.40;0.40;;;16.40;99.90;;;;;;5070152;28;20200;-68
2022/11/06 14:36:49;;;;;;;0.40;0.40;;;16.40;99.90;;;;;;5070118;28;20239;-68
2022/11/06 14:40:02;;;;;;;0.40;0.40;;;16.40;99.90;;;;;;5070408;28;20237;-65
2022/11/06 14:42:51;;;;;;;0.40;0.40;;;16.30;99.90;;;;;;5071099;28;20353;-70
2022/11/06 14:45:48;;;;;;;0.40;0.40;;;16.30;99.90;;;;;;5070002;28;20223;-66
2022/11/06 14:48:39;;;;;;;0.40;0.40;;;16.30;99.90;;;;;;5071614;28;20197;-67
2022/11/06 14:51:29;;;;;;;0.40;0.40;;;16.30;99.90;;;;;;5073887;28;20287;-70
2022/11/06 14:54:24;;;;;;;0.40;0.40;;;16.30;99.90;;;;;;5074122;28;20207;-72
2022/11/06 14:57:16;;;;;;;0.40;0.40;;;16.30;99.90;;;;;;5064599;28;20263;-69
2022/11/06 15:00:05;;;;;;;0.40;0.40;;;16.30;99.90;;;;;;5054338;28;20796;-67
2022/11/06 15:02:55;;;;;;;0.40;0.40;;;16.20;99.90;;;;;;5054061;28;20212;-69
2022/11/06 15:05:43;;;;;;;0.40;0.40;;;16.20;99.90;;;;;;5053645;28;20287;-69
2022/11/06 15:08:58;;;;;;;0.40;0.40;;;16.10;99.90;;;;;;5054520;28;20200;-66
2022/11/06 15:11:55;;;;;;;0.40;0.40;;;16.20;99.90;;;;;;5054293;28;20685;-68
2022/11/06 15:14:55;;;;;;;0.40;0.40;;;16.10;99.90;;;;;;5053675;28;20204;-67